createdAt,value
2022-10-17T13:10:52.404Z,30.40
2022-10-17T13:13:24.596Z,30.45
2022-10-17T13:15:54.497Z,31.89
2022-10-17T13:18:24.120Z,30.62
2022-10-17T13:21:00.679Z,31.53
2022-10-17T13:23:32.321Z,31.05
2022-10-17T13:26:20.080Z,29.98
2022-10-17T13:29:03.522Z,29.50
2022-10-17T13:31:33.424Z,28.94
2022-10-17T13:34:03.138Z,29.27
2022-10-17T13:36:32.710Z,30.13
2022-10-17T13:39:07.636Z,30.86
2022-10-17T13:41:38.319Z,30.47
2022-10-17T13:44:14.949Z,30.14
2022-10-17T13:49:26.030Z,30.39
2022-10-17T13:51:57.252Z,30.67
2022-10-17T13:54:37.847Z,30.50
2022-10-17T13:57:06.952Z,29.99
2022-10-17T13:59:40.165Z,29.27
2022-10-17T14:02:15.339Z,29.47
2022-10-17T14:08:23.788Z,29.39
2022-10-17T14:10:43.552Z,28.77
2022-10-17T14:13:22.062Z,30.27
2022-10-17T14:15:50.495Z,30.66
2022-10-17T14:18:21.864Z,31.15
2022-10-17T14:23:41.811Z,29.58
2022-10-17T14:26:13.424Z,29.49
2022-10-17T14:28:43.355Z,29.69
2022-10-17T14:33:54.911Z,29.36
2022-10-17T14:36:33.187Z,29.47
2022-10-17T14:39:02.015Z,28.29
2022-10-17T14:41:48.822Z,27.56
2022-10-17T14:44:30.083Z,26.99
2022-10-17T14:47:18.294Z,27.35
2022-10-17T14:49:51.661Z,27.96
2022-10-17T14:52:30.134Z,28.02
2022-10-17T14:55:00.044Z,28.00
2022-10-17T14:57:41.693Z,28.38
2022-10-17T15:00:14.919Z,28.58
2022-10-17T15:02:42.895Z,29.10
2022-10-17T15:05:13.368Z,29.08
2022-10-17T15:07:43.451Z,29.54
2022-10-17T15:10:26.245Z,28.79
2022-10-17T15:12:59.332Z,29.05
2022-10-17T15:15:33.263Z,28.20
2022-10-17T15:18:01.224Z,28.26
2022-10-17T15:20:30.545Z,27.20
2022-10-17T15:23:01.263Z,27.46
2022-10-17T15:27:59.581Z,26.82
2022-10-17T15:30:29.802Z,26.61
2022-10-17T15:35:26.758Z,26.97
2022-10-17T15:42:54.351Z,26.75
2022-10-17T15:45:22.843Z,27.00
2022-10-17T15:47:53.271Z,25.97
2022-10-17T15:50:22.576Z,25.16
2022-10-17T15:52:51.085Z,24.46
2022-10-17T15:55:19.799Z,23.85
2022-10-17T16:00:19.840Z,23.30
2022-10-17T16:02:49.257Z,22.93
2022-10-17T16:05:23.113Z,22.41
2022-10-17T16:07:51.439Z,22.16
2022-10-17T16:10:20.684Z,21.83
2022-10-17T16:12:50.959Z,21.60
2022-10-17T16:15:22.686Z,21.42
2022-10-17T16:20:19.790Z,21.13
2022-10-17T16:25:20.930Z,20.82
2022-10-17T16:27:52.261Z,20.71
2022-10-17T16:35:26.977Z,20.19
2022-10-17T16:37:56.451Z,20.05
2022-10-17T16:40:24.475Z,19.92
2022-10-17T16:42:54.194Z,19.84
2022-10-17T16:45:24.253Z,19.68
2022-10-17T16:47:53.255Z,19.64
2022-10-17T16:50:21.387Z,19.54
2022-10-17T16:52:49.651Z,19.42
2022-10-17T16:55:19.515Z,19.35
2022-10-17T16:57:49.118Z,19.20
2022-10-17T17:00:19.918Z,19.15
2022-10-17T17:02:49.507Z,19.00
2022-10-17T17:05:18.203Z,19.00
2022-10-17T17:12:44.695Z,18.69
2022-10-17T17:15:12.650Z,18.65
2022-10-17T17:17:51.286Z,18.63
2022-10-17T17:20:21.500Z,18.56
2022-10-17T17:22:50.968Z,18.44
2022-10-17T17:25:19.131Z,18.30
2022-10-17T17:27:47.108Z,18.17
2022-10-17T17:30:14.946Z,18.11
2022-10-17T17:32:44.157Z,18.05
2022-10-17T17:35:12.244Z,17.78
2022-10-17T17:37:40.111Z,17.71
2022-10-17T17:40:09.131Z,17.60
2022-10-17T17:42:37.439Z,17.65
2022-10-17T17:50:03.730Z,17.37
2022-10-17T17:52:31.910Z,17.24
2022-10-17T17:59:58.390Z,17.02
2022-10-17T18:02:26.895Z,16.93
2022-10-17T18:04:54.774Z,16.94
2022-10-17T18:07:24.166Z,16.99
2022-10-17T18:12:20.237Z,16.80
2022-10-17T18:14:49.006Z,16.73
2022-10-17T18:17:17.118Z,16.78
2022-10-17T18:19:45.087Z,16.83
2022-10-17T18:22:12.968Z,16.82
2022-10-17T18:24:42.519Z,16.75
2022-10-17T18:32:06.588Z,16.36
2022-10-17T18:34:35.387Z,16.31
2022-10-17T18:37:03.315Z,16.28
2022-10-17T18:44:29.832Z,16.13
2022-10-17T18:47:02.917Z,16.10
2022-10-17T18:59:26.858Z,15.69
2022-10-17T20:19:10.100Z,14.69
2022-10-17T20:39:15.068Z,14.74
